Time;durP1;ratioP1;P1;durP2;ratioP2;P2;SDS_P1;SDS_P2;PMS_P1;PMS_P2;Temp;Humidity;BMP_temperature;BMP_pressure;BME280_temperature;BME280_humidity;BME280_pressure;Samples;Min_cycle;Max_cycle;Signal;HPM_P1;HPM_P2
2023/04/01 00:00:13;;;;;;;3.90;3.63;;;9.30;99.90;;;;;;5156138;28;20428;-53
2023/04/01 00:02:44;;;;;;;5.77;4.10;;;9.30;99.90;;;;;;5157346;28;20316;-55
2023/04/01 00:05:16;;;;;;;5.17;3.50;;;9.30;99.90;;;;;;5159783;28;20903;-54
2023/04/01 00:07:46;;;;;;;16.87;2.93;;;9.40;99.90;;;;;;5160516;28;20208;-53
2023/04/01 00:10:17;;;;;;;3.90;3.10;;;9.30;99.90;;;;;;5161322;28;20506;-53
2023/04/01 00:12:48;;;;;;;2.70;2.60;;;9.30;99.90;;;;;;5162743;28;20185;-53
2023/04/01 00:15:19;;;;;;;4.10;3.23;;;9.20;99.90;;;;;;5157957;28;20188;-54
2023/04/01 00:17:49;;;;;;;8.10;2.70;;;9.30;99.90;;;;;;5163302;28;20208;-55
2023/04/01 00:20:20;;;;;;;3.60;2.20;;;9.30;99.90;;;;;;5163506;28;20677;-53
2023/04/01 00:22:51;;;;;;;2.27;2.17;;;9.30;99.90;;;;;;5148023;28;20200;-55
2023/04/01 00:25:23;;;;;;;2.70;2.50;;;9.20;99.90;;;;;;5161530;28;20531;-54
2023/04/01 00:27:54;;;;;;;4.67;2.40;;;9.20;99.90;;;;;;5163965;28;20201;-54
2023/04/01 00:30:24;;;;;;;2.53;2.43;;;9.20;99.90;;;;;;5160567;28;20447;-55
2023/04/01 00:32:55;;;;;;;2.70;2.50;;;9.20;99.90;;;;;;5160359;28;20177;-53
2023/04/01 00:35:26;;;;;;;3.97;2.63;;;9.20;99.90;;;;;;5161369;28;20542;-53
2023/04/01 00:37:57;;;;;;;4.30;3.63;;;9.20;99.90;;;;;;5153155;28;20204;-55
2023/04/01 00:40:40;;;;;;;4.17;2.67;;;9.20;99.90;;;;;;5158115;28;20191;-53
2023/04/01 00:43:20;;;;;;;4.67;3.50;;;9.30;99.90;;;;;;5165854;28;20555;-54
2023/04/01 00:45:50;;;;;;;4.03;2.93;;;9.30;99.90;;;;;;5158653;28;20578;-54
2023/04/01 00:48:44;;;;;;;3.40;2.57;;;9.20;99.90;;;;;;5164664;28;21026;-55
2023/04/01 00:51:23;;;;;;;8.07;3.40;;;9.20;99.90;;;;;;5165789;28;20200;-53
2023/04/01 00:53:56;;;;;;;2.43;2.33;;;9.20;99.90;;;;;;5151950;28;20514;-53
2023/04/01 00:56:40;;;;;;;2.70;2.50;;;9.30;99.90;;;;;;5166987;28;20440;-53
2023/04/01 00:59:15;;;;;;;5.87;2.90;;;9.30;99.90;;;;;;5167927;28;20472;-55
2023/04/01 01:01:46;;;;;;;2.83;2.20;;;9.30;99.90;;;;;;5166570;28;20436;-53
2023/04/01 01:04:26;;;;;;;2.73;2.50;;;9.30;99.90;;;;;;5171642;28;20436;-54
2023/04/01 01:07:12;;;;;;;2.37;2.27;;;9.20;99.90;;;;;;5166261;28;20180;-54
2023/04/01 01:10:00;;;;;;;3.40;3.10;;;9.30;99.90;;;;;;5165897;28;20459;-54
2023/04/01 01:12:58;;;;;;;4.00;2.67;;;9.30;99.90;;;;;;5163186;28;20467;-54
2023/04/01 01:15:41;;;;;;;2.93;2.30;;;9.30;99.90;;;;;;5172095;28;20464;-54
2023/04/01 01:18:24;;;;;;;3.30;3.00;;;9.30;99.90;;;;;;5168152;28;20830;-53
2023/04/01 01:21:20;;;;;;;4.30;3.13;;;9.30;99.90;;;;;;5166807;28;20474;-54
2023/04/01 01:24:28;;;;;;;7.00;3.20;;;9.30;99.90;;;;;;5170093;28;20531;-54
2023/04/01 01:27:11;;;;;;;3.47;3.20;;;9.30;99.90;;;;;;5176566;28;20587;-53
2023/04/01 01:29:54;;;;;;;4.17;2.93;;;9.30;99.90;;;;;;5165782;28;20467;-54
2023/04/01 01:32:56;;;;;;;3.20;2.90;;;9.30;99.90;;;;;;5168481;28;20440;-53
2023/04/01 01:36:01;;;;;;;11.17;4.23;;;9.30;99.90;;;;;;5165955;28;20432;-53
2023/04/01 01:38:35;;;;;;;3.90;2.90;;;9.30;99.90;;;;;;5156866;28;20988;-54
2023/04/01 01:41:07;;;;;;;4.07;3.33;;;9.30;99.90;;;;;;5166988;28;20436;-53
2023/04/01 01:43:42;;;;;;;3.10;2.90;;;9.30;99.90;;;;;;5172020;28;20454;-53
2023/04/01 01:46:18;;;;;;;3.20;2.90;;;9.30;99.90;;;;;;5165952;28;20428;-54
2023/04/01 01:48:50;;;;;;;2.47;2.27;;;9.30;99.90;;;;;;5166594;28;20479;-53
2023/04/01 01:51:22;;;;;;;2.67;2.57;;;9.30;99.90;;;;;;5170410;28;20531;-53
2023/04/01 01:53:53;;;;;;;5.03;2.97;;;9.30;99.90;;;;;;5167562;28;20443;-53
2023/04/01 01:56:27;;;;;;;2.67;2.50;;;9.30;99.90;;;;;;5159766;28;20933;-53
2023/04/01 01:59:10;;;;;;;2.60;2.40;;;9.20;99.90;;;;;;5167930;28;20212;-53
2023/04/01 02:01:44;;;;;;;2.43;2.33;;;9.30;99.90;;;;;;5155575;28;20467;-53
2023/04/01 02:04:17;;;;;;;5.23;2.77;;;9.30;99.90;;;;;;5167354;28;20510;-54
2023/04/01 02:07:07;;;;;;;2.13;2.00;;;9.30;99.90;;;;;;5164275;28;20447;-53
2023/04/01 02:09:38;;;;;;;3.13;2.73;;;9.30;99.90;;;;;;5166526;28;20468;-52
2023/04/01 02:12:12;;;;;;;2.60;2.40;;;9.30;99.90;;;;;;5162138;28;20440;-54
2023/04/01 02:14:55;;;;;;;2.17;2.03;;;9.40;99.90;;;;;;5160626;28;20428;-53
2023/04/01 02:17:29;;;;;;;3.30;2.13;;;9.40;99.90;;;;;;5164872;28;20457;-53
2023/04/01 02:20:06;;;;;;;2.30;2.20;;;9.40;99.90;;;;;;5168423;28;20432;-53
2023/04/01 02:22:44;;;;;;;5.03;2.27;;;9.40;99.90;;;;;;5159874;28;20420;-53
2023/04/01 02:25:20;;;;;;;2.87;2.20;;;9.40;99.90;;;;;;5158585;28;20439;-53
2023/04/01 02:27:52;;;;;;;6.97;2.50;;;9.30;99.90;;;;;;5163885;28;20468;-53
2023/04/01 02:30:24;;;;;;;2.60;2.50;;;9.40;99.90;;;;;;5144947;28;20446;-55
2023/04/01 02:32:58;;;;;;;2.87;2.40;;;9.30;99.90;;;;;;5164225;28;20493;-53
2023/04/01 02:35:29;;;;;;;2.37;2.10;;;9.30;99.90;;;;;;5162550;28;20445;-53
2023/04/01 02:38:01;;;;;;;3.53;2.60;;;9.30;99.90;;;;;;5166801;28;20525;-54
2023/04/01 02:40:48;;;;;;;2.17;2.07;;;9.40;99.90;;;;;;5159372;28;20948;-55
2023/04/01 02:43:19;;;;;;;4.43;2.63;;;9.30;99.90;;;;;;5162323;28;20975;-54
2023/04/01 02:45:50;;;;;;;8.97;2.77;;;9.30;99.90;;;;;;5170298;28;20450;-54
2023/04/01 02:48:21;;;;;;;6.67;2.43;;;9.30;99.90;;;;;;5156554;28;20469;-54
2023/04/01 02:50:51;;;;;;;2.40;2.30;;;9.30;99.90;;;;;;5157186;28;20209;-54
2023/04/01 02:53:22;;;;;;;2.80;2.70;;;9.30;99.90;;;;;;5160289;28;20181;-54
2023/04/01 02:55:53;;;;;;;5.17;3.50;;;9.30;99.90;;;;;;5155973;28;20185;-56
2023/04/01 02:58:23;;;;;;;3.43;2.57;;;9.30;99.90;;;;;;5158261;28;20327;-53
2023/04/01 03:00:54;;;;;;;6.73;2.53;;;9.30;99.90;;;;;;5159605;28;20239;-53
2023/04/01 03:03:25;;;;;;;2.67;2.47;;;9.30;99.90;;;;;;5160185;28;20264;-54
2023/04/01 03:05:56;;;;;;;4.77;2.17;;;9.30;99.90;;;;;;5158879;28;20772;-54
2023/04/01 03:08:26;;;;;;;2.70;2.27;;;9.30;99.90;;;;;;5161615;28;20260;-54
2023/04/01 03:10:57;;;;;;;2.97;2.73;;;9.30;99.90;;;;;;5176684;28;20484;-54
2023/04/01 03:13:28;;;;;;;2.20;2.00;;;9.30;99.90;;;;;;5163052;28;20632;-54
2023/04/01 03:15:58;;;;;;;2.93;2.73;;;9.30;99.90;;;;;;5159844;28;20185;-54
2023/04/01 03:18:29;;;;;;;4.47;2.80;;;9.30;99.90;;;;;;5161510;28;20673;-54
2023/04/01 03:21:16;;;;;;;8.77;2.63;;;9.30;99.90;;;;;;5160258;28;20181;-53
2023/04/01 03:23:47;;;;;;;3.13;2.07;;;9.30;99.90;;;;;;5151985;28;20177;-55
2023/04/01 03:26:18;;;;;;;2.53;2.40;;;9.30;99.90;;;;;;5159007;28;20485;-53
2023/04/01 03:28:48;;;;;;;2.70;2.60;;;9.30;99.90;;;;;;5165374;28;20468;-53
2023/04/01 03:31:19;;;;;;;3.30;2.90;;;9.30;99.90;;;;;;5157938;28;20196;-52
2023/04/01 03:33:50;;;;;;;2.47;2.37;;;9.30;99.90;;;;;;5145954;28;20185;-54
2023/04/01 03:36:21;;;;;;;2.87;2.67;;;9.30;99.90;;;;;;5163268;28;20181;-53
2023/04/01 03:38:52;;;;;;;3.17;2.87;;;9.30;99.90;;;;;;5156436;28;20213;-53
2023/04/01 03:41:22;;;;;;;3.87;2.70;;;9.30;99.90;;;;;;5156056;28;20471;-53
2023/04/01 03:43:53;;;;;;;5.03;2.80;;;9.30;99.90;;;;;;5163587;28;20184;-53
2023/04/01 03:46:24;;;;;;;9.60;3.00;;;9.30;99.90;;;;;;5160946;28;20212;-54
2023/04/01 03:48:54;;;;;;;6.63;3.30;;;9.30;99.90;;;;;;5162040;28;20225;-52
2023/04/01 03:51:25;;;;;;;4.27;3.33;;;9.20;99.90;;;;;;5162498;28;20213;-55
2023/04/01 03:53:56;;;;;;;6.63;4.03;;;9.20;99.90;;;;;;5162001;28;20184;-54
2023/04/01 03:56:26;;;;;;;3.50;3.30;;;9.30;99.90;;;;;;5160730;28;20177;-53
2023/04/01 03:58:57;;;;;;;4.73;3.93;;;9.30;99.90;;;;;;5158744;28;20224;-53
2023/04/01 04:01:27;;;;;;;6.07;4.73;;;9.30;99.90;;;;;;5155500;28;20727;-53
2023/04/01 04:03:59;;;;;;;2.90;2.70;;;9.30;99.90;;;;;;5163029;28;20185;-53
2023/04/01 04:06:29;;;;;;;4.07;2.70;;;9.30;99.90;;;;;;5165428;28;20191;-54
2023/04/01 04:09:00;;;;;;;6.60;2.83;;;9.20;99.90;;;;;;5173095;28;20461;-54
2023/04/01 04:11:31;;;;;;;3.17;2.63;;;9.20;99.90;;;;;;5157451;28;20634;-53
2023/04/01 04:14:02;;;;;;;2.70;2.50;;;9.20;99.90;;;;;;5163526;28;20618;-54
2023/04/01 04:16:36;;;;;;;5.30;2.53;;;9.20;99.90;;;;;;5157616;28;20438;-53
2023/04/01 04:19:06;;;;;;;4.30;2.83;;;9.30;99.90;;;;;;5166420;28;20530;-54
2023/04/01 04:21:37;;;;;;;4.47;2.70;;;9.20;99.90;;;;;;5161371;28;20531;-54
2023/04/01 04:24:08;;;;;;;5.77;3.50;;;9.20;99.90;;;;;;5162982;28;20745;-53
2023/04/01 04:26:39;;;;;;;3.57;3.00;;;9.20;99.90;;;;;;5163407;28;20269;-53
2023/04/01 04:29:10;;;;;;;3.53;2.80;;;9.20;99.90;;;;;;5154452;28;20550;-56
2023/04/01 04:31:40;;;;;;;4.20;2.87;;;9.30;99.90;;;;;;5156574;28;20597;-54
2023/04/01 04:34:11;;;;;;;5.90;2.87;;;9.20;99.90;;;;;;5161123;28;20173;-54
2023/04/01 04:36:43;;;;;;;4.00;2.43;;;9.20;99.90;;;;;;5161604;28;20256;-54
2023/04/01 04:39:14;;;;;;;4.43;3.00;;;9.20;99.90;;;;;;5197248;23;20219;-46
2023/04/01 04:41:44;;;;;;;5.30;3.20;;;9.30;99.90;;;;;;5174432;28;20459;-46
2023/04/01 04:44:15;;;;;;;9.60;4.57;;;9.30;99.90;;;;;;5182582;28;20184;-47
2023/04/01 04:46:46;;;;;;;10.47;6.70;;;9.20;99.90;;;;;;5181973;28;20238;-48
2023/04/01 04:49:16;;;;;;;10.10;4.80;;;9.20;99.90;;;;;;5166448;28;20216;-45
2023/04/01 04:51:47;;;;;;;4.10;3.30;;;9.30;99.90;;;;;;5159472;28;20243;-46
2023/04/01 04:54:18;;;;;;;10.80;4.03;;;9.30;99.90;;;;;;5160324;28;20179;-47
2023/04/01 04:56:52;;;;;;;10.87;4.93;;;9.30;99.90;;;;;;5163288;28;20428;-47
2023/04/01 04:59:23;;;;;;;7.10;4.63;;;9.30;99.90;;;;;;5163444;28;20213;-46
2023/04/01 05:01:53;;;;;;;5.13;4.00;;;9.30;99.90;;;;;;5161061;28;20886;-47
2023/04/01 05:04:24;;;;;;;3.97;3.63;;;9.30;99.90;;;;;;5164621;28;20188;-48
2023/04/01 05:06:54;;;;;;;6.37;4.20;;;9.30;99.90;;;;;;5162596;28;20227;-47
2023/04/01 05:09:25;;;;;;;6.27;4.50;;;9.30;99.90;;;;;;5157812;28;20644;-48
2023/04/01 05:11:56;;;;;;;3.97;3.70;;;9.40;99.90;;;;;;5158068;28;20191;-47
2023/04/01 05:14:26;;;;;;;5.93;3.80;;;9.30;99.90;;;;;;5160029;28;20242;-46
2023/04/01 05:16:58;;;;;;;6.53;4.20;;;9.40;99.90;;;;;;5161347;28;20186;-47
2023/04/01 05:19:29;;;;;;;6.47;4.20;;;9.40;99.90;;;;;;5154724;28;20209;-47
2023/04/01 05:21:59;;;;;;;5.93;4.80;;;9.40;99.90;;;;;;5150213;28;21035;-47
2023/04/01 05:24:30;;;;;;;4.37;4.00;;;9.50;99.90;;;;;;5152737;28;20200;-50
2023/04/01 05:27:01;;;;;;;6.50;4.50;;;9.50;99.90;;;;;;5140696;28;20253;-48
2023/04/01 05:29:32;;;;;;;9.90;5.03;;;9.50;99.90;;;;;;5162731;28;20209;-48
2023/04/01 05:32:03;;;;;;;6.93;4.60;;;9.50;99.90;;;;;;5156530;28;20243;-48
2023/04/01 05:34:35;;;;;;;7.40;4.67;;;9.50;99.90;;;;;;5162127;28;20444;-47
2023/04/01 05:37:07;;;;;;;4.40;4.00;;;9.50;99.90;;;;;;5163087;28;20192;-49
2023/04/01 05:39:38;;;;;;;8.07;4.63;;;9.50;99.90;;;;;;5164841;28;20539;-51
2023/04/01 05:42:09;;;;;;;7.00;4.30;;;9.50;99.90;;;;;;5160768;28;20465;-47
2023/04/01 05:44:39;;;;;;;5.87;4.33;;;9.50;99.90;;;;;;5165378;28;20444;-50
2023/04/01 05:47:10;;;;;;;6.70;4.70;;;9.50;99.90;;;;;;5155029;28;20216;-47
2023/04/01 05:49:41;;;;;;;5.10;4.10;;;9.50;99.90;;;;;;5157830;28;20220;-48
2023/04/01 05:52:11;;;;;;;5.83;5.23;;;9.50;99.90;;;;;;5164661;28;20646;-47
2023/04/01 05:54:42;;;;;;;6.27;4.50;;;9.60;99.90;;;;;;5167940;28;20186;-48
2023/04/01 05:57:13;;;;;;;5.60;5.17;;;9.60;99.90;;;;;;5165261;28;20235;-51
2023/04/01 05:59:44;;;;;;;6.37;4.87;;;9.60;99.90;;;;;;5163312;28;20205;-48
2023/04/01 06:02:17;;;;;;;4.80;4.40;;;9.60;99.90;;;;;;5156477;28;21688;-47
2023/04/01 06:04:48;;;;;;;5.23;4.83;;;9.70;99.90;;;;;;5154698;28;20436;-47
2023/04/01 06:07:18;;;;;;;5.17;4.67;;;9.80;99.90;;;;;;5158558;28;20829;-54
2023/04/01 06:09:49;;;;;;;5.23;4.83;;;9.80;99.90;;;;;;5153144;28;20290;-50
2023/04/01 06:12:45;;;;;;;12.50;5.50;;;9.80;99.90;;;;;;5157892;28;20233;-46
2023/04/01 06:15:31;;;;;;;5.00;4.43;;;9.90;99.90;;;;;;5156930;28;20590;-47
2023/04/01 06:18:07;;;;;;;8.57;5.50;;;9.90;99.90;;;;;;5157013;28;21790;-48
2023/04/01 06:21:10;;;;;;;5.67;4.60;;;9.90;99.90;;;;;;5159103;28;20428;-47
2023/04/01 06:24:16;;;;;;;6.37;5.50;;;9.90;99.90;;;;;;5165544;28;20511;-48
2023/04/01 06:27:10;;;;;;;5.13;4.63;;;9.90;99.90;;;;;;5146626;28;20439;-46
2023/04/01 06:29:52;;;;;;;7.70;5.33;;;9.80;99.90;;;;;;5161513;28;20511;-47
2023/04/01 06:32:37;;;;;;;6.57;4.30;;;9.80;99.90;;;;;;5158314;28;20436;-47
2023/04/01 06:35:17;;;;;;;13.83;5.50;;;9.70;99.90;;;;;;5166763;28;20436;-47
2023/04/01 06:38:17;;;;;;;15.00;5.60;;;9.70;99.90;;;;;;5160030;28;20464;-46
2023/04/01 06:41:25;;;;;;;9.77;5.40;;;9.70;99.90;;;;;;5158166;28;20820;-47
2023/04/01 06:44:26;;;;;;;5.87;5.17;;;9.70;99.90;;;;;;5156993;28;20435;-47
2023/04/01 06:47:17;;;;;;;4.17;3.77;;;9.70;99.90;;;;;;5159960;28;20841;-47
2023/04/01 06:50:16;;;;;;;5.37;4.67;;;9.80;99.90;;;;;;5158207;28;20464;-48
2023/04/01 06:53:16;;;;;;;7.27;4.63;;;9.80;99.90;;;;;;5154346;28;20440;-47
2023/04/01 06:55:52;;;;;;;9.80;4.50;;;9.80;99.90;;;;;;5160742;28;20447;-47
2023/04/01 06:58:27;;;;;;;7.27;5.10;;;9.90;99.90;;;;;;5158982;28;20467;-49
2023/04/01 07:01:01;;;;;;;5.87;5.47;;;9.90;99.90;;;;;;5153265;28;20447;-47
2023/04/01 07:03:39;;;;;;;6.47;5.27;;;9.90;99.90;;;;;;5164993;28;20524;-52
2023/04/01 07:06:29;;;;;;;7.03;5.90;;;10.00;99.90;;;;;;5161614;28;20525;-50
2023/04/01 07:09:06;;;;;;;9.03;5.77;;;10.10;99.90;;;;;;5160071;28;20467;-48
2023/04/01 07:11:38;;;;;;;7.60;5.57;;;10.00;99.90;;;;;;5176647;28;20424;-49
2023/04/01 07:14:26;;;;;;;5.67;5.07;;;10.20;99.90;;;;;;5155534;28;20468;-48
2023/04/01 07:17:18;;;;;;;5.87;5.30;;;10.20;99.90;;;;;;5158542;28;20428;-46
2023/04/01 07:20:15;;;;;;;8.27;5.43;;;10.20;99.90;;;;;;5160130;28;20502;-47
2023/04/01 07:22:53;;;;;;;8.97;6.70;;;10.30;99.90;;;;;;5157859;28;20437;-47
2023/04/01 07:25:31;;;;;;;12.77;5.50;;;10.30;99.90;;;;;;5160555;28;20532;-51
2023/04/01 07:28:05;;;;;;;5.70;4.60;;;10.40;99.90;;;;;;5163775;28;20468;-49
2023/04/01 07:31:12;;;;;;;9.10;5.83;;;10.30;99.90;;;;;;5165220;28;20439;-47
2023/04/01 07:34:05;;;;;;;4.87;4.37;;;10.40;99.90;;;;;;5147764;28;20444;-47
2023/04/01 07:36:47;;;;;;;5.83;5.33;;;10.40;99.90;;;;;;5161759;28;21059;-48
2023/04/01 07:39:34;;;;;;;4.90;4.50;;;10.40;99.90;;;;;;5161346;28;20547;-52
2023/04/01 07:42:23;;;;;;;6.80;4.87;;;10.40;99.90;;;;;;5166021;28;20507;-48
2023/04/01 07:45:09;;;;;;;5.33;4.83;;;10.50;99.90;;;;;;5167796;28;20416;-52
2023/04/01 07:48:11;;;;;;;4.70;4.30;;;10.50;99.90;;;;;;5165722;28;20538;-47
2023/04/01 07:50:51;;;;;;;6.47;5.43;;;10.50;99.90;;;;;;5149935;28;21776;-52
2023/04/01 07:53:28;;;;;;;6.17;5.60;;;10.40;99.90;;;;;;5156297;28;20523;-46
2023/04/01 07:56:18;;;;;;;5.17;4.67;;;10.50;99.90;;;;;;5164008;28;20439;-49
2023/04/01 07:58:54;;;;;;;7.47;5.57;;;10.40;99.90;;;;;;5163659;28;21007;-46
2023/04/01 08:02:06;;;;;;;6.43;5.70;;;10.40;99.90;;;;;;5161735;28;20448;-47
2023/04/01 08:05:15;;;;;;;8.97;6.63;;;10.30;99.90;;;;;;5143940;28;20456;-47
2023/04/01 08:07:59;;;;;;;4.00;3.30;;;10.00;99.90;;;;;;5159067;28;20460;-47
2023/04/01 08:10:57;;;;;;;4.73;4.33;;;9.60;99.90;;;;;;5154039;28;20444;-47
2023/04/01 08:13:52;;;;;;;7.97;5.20;;;9.30;99.90;;;;;;5161717;28;20424;-48
2023/04/01 08:17:07;;;;;;;5.37;4.87;;;9.30;99.90;;;;;;5162993;28;20444;-50
2023/04/01 08:20:07;;;;;;;6.93;4.63;;;9.30;99.90;;;;;;5146284;28;20943;-48
2023/04/01 08:23:03;;;;;;;4.13;3.83;;;9.30;99.90;;;;;;5159298;28;20452;-52
2023/04/01 08:25:37;;;;;;;11.53;6.87;;;9.30;99.90;;;;;;5157134;28;21001;-46
2023/04/01 08:28:39;;;;;;;13.17;7.37;;;9.30;99.90;;;;;;5161771;28;20479;-47
2023/04/01 08:31:26;;;;;;;14.20;8.20;;;9.30;99.90;;;;;;5155720;28;20444;-46
2023/04/01 08:33:57;;;;;;;18.07;9.37;;;9.10;99.90;;;;;;5160883;28;20540;-46
2023/04/01 08:36:38;;;;;;;14.30;9.60;;;9.10;99.90;;;;;;5161126;28;20428;-47
2023/04/01 08:39:18;;;;;;;24.33;12.43;;;8.90;99.90;;;;;;5155398;28;21075;-48
2023/04/01 08:42:16;;;;;;;26.03;13.70;;;8.90;99.90;;;;;;5157501;28;20444;-49
2023/04/01 08:45:03;;;;;;;31.70;15.37;;;8.80;99.90;;;;;;5153558;28;20460;-46
2023/04/01 08:47:42;;;;;;;34.60;15.77;;;8.80;99.90;;;;;;5159051;28;20467;-48
2023/04/01 08:50:36;;;;;;;56.37;20.80;;;8.80;99.90;;;;;;5155259;28;20527;-50
2023/04/01 08:53:12;;;;;;;38.87;17.80;;;8.80;99.90;;;;;;5154543;28;20436;-46
2023/04/01 08:56:09;;;;;;;41.90;20.13;;;8.80;99.90;;;;;;5154702;28;20972;-49
2023/04/01 08:58:55;;;;;;;37.30;19.17;;;8.80;99.90;;;;;;5146574;28;20466;-48
2023/04/01 09:02:07;;;;;;;42.57;21.10;;;8.70;99.90;;;;;;5152792;28;20451;-47
2023/04/01 09:05:15;;;;;;;55.50;27.37;;;8.60;99.90;;;;;;5153749;28;20440;-49
2023/04/01 09:07:51;;;;;;;57.13;24.90;;;8.70;99.90;;;;;;5161410;28;20857;-46
2023/04/01 09:10:22;;;;;;;48.30;23.80;;;8.80;99.90;;;;;;5158705;28;20525;-52
2023/04/01 09:13:14;;;;;;;33.93;22.03;;;8.70;99.90;;;;;;5159580;28;20509;-48
2023/04/01 09:16:19;;;;;;;45.30;23.90;;;8.80;99.90;;;;;;5158076;28;20752;-48
2023/04/01 09:19:10;;;;;;;45.83;22.00;;;8.80;99.90;;;;;;5161045;28;20456;-47
2023/04/01 09:22:05;;;;;;;47.40;22.60;;;8.90;99.90;;;;;;5159875;28;21617;-47
2023/04/01 09:24:41;;;;;;;36.60;19.23;;;8.80;99.90;;;;;;5160288;28;20439;-48
2023/04/01 09:27:23;;;;;;;45.43;23.20;;;8.80;99.90;;;;;;5161938;28;20489;-48
2023/04/01 09:30:11;;;;;;;45.37;22.77;;;8.80;99.90;;;;;;5163915;28;20468;-52
2023/04/01 09:33:06;;;;;;;57.50;27.70;;;8.80;99.90;;;;;;5159727;28;20435;-50
2023/04/01 09:35:47;;;;;;;40.23;22.67;;;8.80;99.90;;;;;;5164896;28;20474;-48
2023/04/01 09:38:36;;;;;;;36.80;21.47;;;8.60;99.90;;;;;;5160907;28;20474;-47
2023/04/01 09:41:06;;;;;;;36.10;22.63;;;8.50;99.90;;;;;;5158287;28;20463;-50
2023/04/01 09:43:46;;;;;;;42.27;23.70;;;8.50;99.90;;;;;;5154314;28;21092;-49
2023/04/01 09:46:39;;;;;;;42.40;23.70;;;8.50;99.90;;;;;;5157320;28;20177;-48
2023/04/01 09:49:53;;;;;;;39.57;22.33;;;8.50;99.90;;;;;;5158800;28;21058;-47
2023/04/01 09:52:32;;;;;;;42.37;24.60;;;8.50;99.90;;;;;;5171135;28;20439;-47
2023/04/01 09:55:26;;;;;;;37.77;23.50;;;8.40;99.90;;;;;;5157674;28;20440;-53
2023/04/01 09:58:42;;;;;;;61.57;26.00;;;8.40;99.90;;;;;;5153980;28;20455;-48
2023/04/01 10:01:40;;;;;;;32.37;21.47;;;8.40;99.90;;;;;;5140454;28;20477;-51
2023/04/01 10:04:11;;;;;;;45.20;23.10;;;8.40;99.90;;;;;;5173568;28;20548;-49
2023/04/01 10:07:00;;;;;;;43.23;22.13;;;8.40;99.90;;;;;;5157103;28;20461;-47
2023/04/01 10:10:02;;;;;;;33.23;21.00;;;8.40;99.90;;;;;;5159074;28;20286;-47
2023/04/01 10:13:17;;;;;;;45.60;24.30;;;8.20;99.90;;;;;;5155143;28;20447;-46
2023/04/01 10:16:00;;;;;;;54.77;25.83;;;8.20;99.90;;;;;;5161901;28;20495;-46
2023/04/01 10:18:46;;;;;;;41.30;23.30;;;8.20;99.90;;;;;;5156691;28;20459;-47
2023/04/01 10:21:32;;;;;;;39.40;22.43;;;8.20;99.90;;;;;;5153122;28;20448;-46
2023/04/01 10:24:14;;;;;;;43.63;23.50;;;8.10;99.90;;;;;;5171388;28;20527;-48
2023/04/01 10:26:50;;;;;;;45.03;24.00;;;8.00;99.90;;;;;;5160477;28;20435;-49
2023/04/01 10:29:30;;;;;;;46.40;25.87;;;8.10;99.90;;;;;;5155995;28;20936;-47
2023/04/01 10:32:28;;;;;;;36.67;22.77;;;8.10;99.90;;;;;;5154888;28;20435;-47
2023/04/01 10:35:38;;;;;;;39.03;22.93;;;8.00;99.90;;;;;;5152511;28;20436;-46
2023/04/01 10:38:36;;;;;;;48.23;25.03;;;8.00;99.90;;;;;;5160428;28;20491;-46
2023/04/01 10:41:10;;;;;;;48.50;26.77;;;7.90;99.90;;;;;;5155677;28;20444;-49
2023/04/01 10:43:52;;;;;;;49.67;27.13;;;7.90;99.90;;;;;;5153932;28;20442;-50
2023/04/01 10:46:42;;;;;;;42.60;24.37;;;8.00;99.90;;;;;;5151212;28;20447;-48
2023/04/01 10:49:39;;;;;;;35.40;22.73;;;8.00;99.90;;;;;;5159046;28;20867;-48
2023/04/01 10:52:53;;;;;;;57.07;28.23;;;7.90;99.90;;;;;;5159317;28;20432;-48
2023/04/01 10:55:42;;;;;;;42.93;26.17;;;7.80;99.90;;;;;;5150243;28;20444;-47
2023/04/01 10:58:40;;;;;;;46.10;25.90;;;7.80;99.90;;;;;;5151602;28;20480;-48
2023/04/01 11:01:35;;;;;;;52.20;28.80;;;7.80;99.90;;;;;;5152229;28;20453;-48
2023/04/01 11:04:30;;;;;;;43.50;26.93;;;7.80;99.90;;;;;;5153820;28;20734;-48
2023/04/01 11:07:25;;;;;;;34.07;23.00;;;7.90;99.90;;;;;;5162333;28;21039;-48
2023/04/01 11:10:49;;;;;;;46.50;25.17;;;7.80;99.90;;;;;;5161494;28;21077;-47
2023/04/01 11:13:57;;;;;;;53.60;28.70;;;7.90;99.90;;;;;;5163705;28;20436;-48
2023/04/01 11:16:46;;;;;;;42.10;26.87;;;8.00;99.90;;;;;;5160402;28;20517;-49
2023/04/01 11:19:36;;;;;;;53.70;29.63;;;7.90;99.90;;;;;;5155548;28;20873;-49
2023/04/01 11:22:26;;;;;;;46.10;27.70;;;7.90;99.90;;;;;;5157850;28;20469;-48
2023/04/01 11:25:22;;;;;;;39.40;24.37;;;8.00;99.90;;;;;;5161384;28;20441;-49
2023/04/01 11:28:18;;;;;;;32.00;22.40;;;8.00;99.90;;;;;;5156324;28;20850;-48
2023/04/01 11:31:18;;;;;;;32.23;22.50;;;7.90;99.90;;;;;;5158001;28;20971;-48
2023/04/01 11:34:01;;;;;;;41.77;23.80;;;7.80;99.90;;;;;;5159120;28;20412;-50
2023/04/01 11:37:04;;;;;;;41.10;26.57;;;7.80;99.90;;;;;;5161342;28;20440;-48
2023/04/01 11:40:09;;;;;;;36.90;24.33;;;7.80;99.90;;;;;;5157625;28;22229;-50
2023/04/01 11:42:52;;;;;;;38.77;23.87;;;7.90;99.90;;;;;;5148204;28;20808;-48
2023/04/01 11:45:33;;;;;;;39.80;25.37;;;7.80;99.90;;;;;;5161595;28;20483;-50
2023/04/01 11:48:27;;;;;;;44.63;27.60;;;7.70;99.90;;;;;;5163915;28;20805;-50
2023/04/01 11:51:04;;;;;;;41.23;26.00;;;7.70;99.90;;;;;;5154419;28;20807;-49
2023/04/01 11:53:49;;;;;;;37.50;25.63;;;7.70;99.90;;;;;;5158630;28;20439;-50
2023/04/01 11:56:41;;;;;;;47.20;29.00;;;7.70;99.90;;;;;;5157409;28;20547;-50
2023/04/01 11:59:47;;;;;;;48.33;31.20;;;7.60;99.90;;;;;;5163143;28;20468;-48
2023/04/01 12:02:46;;;;;;;59.23;32.43;;;7.60;99.90;;;;;;5151534;28;20456;-50
2023/04/01 12:05:44;;;;;;;51.37;31.10;;;7.50;99.90;;;;;;5158043;28;20483;-49
2023/04/01 12:08:54;;;;;;;49.37;28.87;;;7.60;99.90;;;;;;5156986;28;20503;-47
2023/04/01 12:11:49;;;;;;;56.70;32.13;;;7.50;99.90;;;;;;5159405;28;20527;-49
2023/04/01 12:14:32;;;;;;;50.33;29.77;;;7.50;99.90;;;;;;5157845;28;20444;-48
2023/04/01 12:17:28;;;;;;;38.87;26.13;;;7.50;99.90;;;;;;5155866;28;20440;-49
2023/04/01 12:20:38;;;;;;;44.93;27.03;;;7.50;99.90;;;;;;5157188;28;20472;-50
2023/04/01 12:23:35;;;;;;;40.83;25.33;;;7.40;99.90;;;;;;5156736;28;20509;-50
2023/04/01 12:26:27;;;;;;;49.93;28.53;;;7.40;99.90;;;;;;5152172;28;20527;-49
2023/04/01 12:29:22;;;;;;;46.00;28.40;;;7.40;99.90;;;;;;5149528;28;21074;-47
2023/04/01 12:32:21;;;;;;;52.50;31.10;;;7.40;99.90;;;;;;5157939;28;20455;-48
2023/04/01 12:35:18;;;;;;;39.93;25.87;;;7.30;99.90;;;;;;5149641;28;20483;-47
2023/04/01 12:37:54;;;;;;;49.33;30.73;;;7.30;99.90;;;;;;5152255;28;20559;-51
2023/04/01 12:40:28;;;;;;;47.23;30.10;;;7.30;99.90;;;;;;5157586;28;20441;-49
2023/04/01 12:43:17;;;;;;;54.80;32.33;;;7.30;99.90;;;;;;5160635;28;21066;-47
2023/04/01 12:46:10;;;;;;;65.00;34.30;;;7.20;99.90;;;;;;5158419;28;20432;-50
2023/04/01 12:49:01;;;;;;;59.13;34.00;;;7.20;99.90;;;;;;5162013;28;20460;-48
2023/04/01 12:51:50;;;;;;;55.20;32.50;;;7.20;99.90;;;;;;5163624;28;20475;-49
2023/04/01 12:54:30;;;;;;;62.00;36.63;;;7.10;99.90;;;;;;5162620;28;20440;-49
2023/04/01 12:57:22;;;;;;;55.87;32.70;;;7.10;99.90;;;;;;5160749;28;20485;-46
2023/04/01 13:00:24;;;;;;;70.90;35.13;;;7.00;99.90;;;;;;5157381;28;20795;-49
2023/04/01 13:03:17;;;;;;;57.03;33.87;;;7.00;99.90;;;;;;5142414;28;20534;-47
2023/04/01 13:06:08;;;;;;;51.70;32.80;;;7.10;99.90;;;;;;5158778;28;20756;-48
2023/04/01 13:09:04;;;;;;;59.73;32.07;;;7.10;99.90;;;;;;5164909;28;20469;-49
2023/04/01 13:11:53;;;;;;;57.70;33.30;;;7.10;99.90;;;;;;5163317;28;20500;-47
2023/04/01 13:14:32;;;;;;;55.67;32.20;;;7.10;99.90;;;;;;5159186;28;20460;-48
2023/04/01 13:17:20;;;;;;;59.07;32.67;;;7.10;99.90;;;;;;5153595;28;20432;-48
2023/04/01 13:20:03;;;;;;;52.60;31.20;;;7.10;99.90;;;;;;5156259;28;20521;-51
2023/04/01 13:22:56;;;;;;;53.40;29.80;;;6.90;99.90;;;;;;5164269;28;20453;-49
2023/04/01 13:25:51;;;;;;;54.40;32.13;;;6.90;99.90;;;;;;5156906;28;20471;-51
2023/04/01 13:28:29;;;;;;;51.87;29.53;;;7.00;99.90;;;;;;5157431;28;20478;-50
2023/04/01 13:31:04;;;;;;;49.67;28.20;;;6.90;99.90;;;;;;5157120;28;20482;-48
2023/04/01 13:33:37;;;;;;;41.00;27.00;;;6.80;99.90;;;;;;5161122;28;20439;-48
2023/04/01 13:36:24;;;;;;;41.87;26.00;;;6.80;99.90;;;;;;5158189;28;20458;-49
2023/04/01 13:39:09;;;;;;;52.67;29.53;;;6.80;99.90;;;;;;5175176;28;20475;-49
2023/04/01 13:42:06;;;;;;;46.07;26.20;;;6.80;99.90;;;;;;5176585;28;20463;-51
2023/04/01 13:44:55;;;;;;;39.83;25.10;;;6.80;99.90;;;;;;5151319;28;20541;-49
2023/04/01 13:47:34;;;;;;;43.90;24.53;;;6.90;99.90;;;;;;5155895;28;20594;-50
2023/04/01 13:50:33;;;;;;;41.10;23.77;;;6.90;99.90;;;;;;5156089;28;20526;-48
2023/04/01 13:53:27;;;;;;;35.87;23.90;;;7.00;99.90;;;;;;5156298;28;20433;-48
2023/04/01 13:56:01;;;;;;;39.33;24.70;;;7.00;99.90;;;;;;5155245;28;20498;-49
2023/04/01 13:58:53;;;;;;;37.50;24.90;;;7.00;99.90;;;;;;5153570;28;20461;-49
2023/04/01 14:01:49;;;;;;;36.17;23.67;;;6.90;99.90;;;;;;5161698;28;20447;-49
2023/04/01 14:04:48;;;;;;;35.97;22.97;;;7.00;99.90;;;;;;5152571;28;20444;-49
2023/04/01 14:07:39;;;;;;;31.70;19.53;;;7.00;99.90;;;;;;5155091;28;21344;-49